sensor_id;sensor_type;location;lat;lon;timestamp;pressure;altitude;pressure_sealevel;temperature
82778;BMP280;72510;45.128;20.734;2024-02-26T00:01:43;99686.22;;;11.66
82778;BMP280;72510;45.128;20.734;2024-02-26T00:11:46;99674.06;;;11.59
82778;BMP280;72510;45.128;20.734;2024-02-26T00:21:48;99664.16;;;11.60
82778;BMP280;72510;45.128;20.734;2024-02-26T00:31:51;99661.22;;;11.47
82778;BMP280;72510;45.128;20.734;2024-02-26T00:41:53;99662.19;;;11.44
82778;BMP280;72510;45.128;20.734;2024-02-26T00:51:54;99648.78;;;11.32
82778;BMP280;72510;45.128;20.734;2024-02-26T01:01:56;99643.94;;;11.25
82778;BMP280;72510;45.128;20.734;2024-02-26T01:11:59;99653.13;;;11.18
82778;BMP280;72510;45.128;20.734;2024-02-26T01:22:00;99645.34;;;11.09
82778;BMP280;72510;45.128;20.734;2024-02-26T01:32:02;99643.63;;;11.01
82778;BMP280;72510;45.128;20.734;2024-02-26T01:42:16;99634.78;;;10.83
82778;BMP280;72510;45.128;20.734;2024-02-26T01:52:18;99639.78;;;10.64
82778;BMP280;72510;45.128;20.734;2024-02-26T02:02:22;99637.50;;;10.46
82778;BMP280;72510;45.128;20.734;2024-02-26T02:12:24;99639.09;;;10.32
82778;BMP280;72510;45.128;20.734;2024-02-26T02:22:35;99636.38;;;10.21
82778;BMP280;72510;45.128;20.734;2024-02-26T02:32:44;99632.53;;;9.95
82778;BMP280;72510;45.128;20.734;2024-02-26T02:54:12;99638.75;;;9.61
82778;BMP280;72510;45.128;20.734;2024-02-26T03:04:17;99629.34;;;9.65
82778;BMP280;72510;45.128;20.734;2024-02-26T03:14:18;99635.38;;;9.86
82778;BMP280;72510;45.128;20.734;2024-02-26T03:24:21;99630.66;;;10.02
82778;BMP280;72510;45.128;20.734;2024-02-26T03:34:22;99639.78;;;10.27
82778;BMP280;72510;45.128;20.734;2024-02-26T03:44:24;99626.53;;;10.32
82778;BMP280;72510;45.128;20.734;2024-02-26T03:54:26;99626.34;;;10.47
82778;BMP280;72510;45.128;20.734;2024-02-26T04:04:27;99619.88;;;10.54
82778;BMP280;72510;45.128;20.734;2024-02-26T04:14:29;99617.06;;;10.69
82778;BMP280;72510;45.128;20.734;2024-02-26T04:24:30;99627.81;;;10.86
82778;BMP280;72510;45.128;20.734;2024-02-26T04:34:35;99613.31;;;10.92
82778;BMP280;72510;45.128;20.734;2024-02-26T04:44:37;99616.69;;;10.93
82778;BMP280;72510;45.128;20.734;2024-02-26T04:54:41;99621.00;;;10.85
82778;BMP280;72510;45.128;20.734;2024-02-26T05:04:43;99623.66;;;10.79
82778;BMP280;72510;45.128;20.734;2024-02-26T05:14:44;99622.41;;;10.74
82778;BMP280;72510;45.128;20.734;2024-02-26T05:24:49;99636.91;;;10.68
82778;BMP280;72510;45.128;20.734;2024-02-26T05:34:53;99651.69;;;10.69
82778;BMP280;72510;45.128;20.734;2024-02-26T05:44:55;99661.81;;;10.65
82778;BMP280;72510;45.128;20.734;2024-02-26T05:54:57;99651.97;;;10.76
82778;BMP280;72510;45.128;20.734;2024-02-26T06:04:58;99646.00;;;10.98
82778;BMP280;72510;45.128;20.734;2024-02-26T06:15:08;99664.84;;;11.49
82778;BMP280;72510;45.128;20.734;2024-02-26T06:25:10;99679.69;;;11.84
82778;BMP280;72510;45.128;20.734;2024-02-26T06:35:16;99679.94;;;12.14
82778;BMP280;72510;45.128;20.734;2024-02-26T06:45:18;99678.22;;;12.45
82778;BMP280;72510;45.128;20.734;2024-02-26T06:55:23;99691.03;;;12.69
82778;BMP280;72510;45.128;20.734;2024-02-26T07:05:26;99708.47;;;12.98
82778;BMP280;72510;45.128;20.734;2024-02-26T07:15:28;99709.81;;;13.27
82778;BMP280;72510;45.128;20.734;2024-02-26T07:25:29;99714.41;;;13.68
82778;BMP280;72510;45.128;20.734;2024-02-26T07:35:31;99722.16;;;14.08
82778;BMP280;72510;45.128;20.734;2024-02-26T07:45:34;99711.84;;;14.48
82778;BMP280;72510;45.128;20.734;2024-02-26T07:55:38;99711.13;;;14.91
82778;BMP280;72510;45.128;20.734;2024-02-26T08:05:44;99723.53;;;15.32
82778;BMP280;72510;45.128;20.734;2024-02-26T08:15:46;99706.88;;;15.71
82778;BMP280;72510;45.128;20.734;2024-02-26T08:25:48;99699.50;;;16.04
82778;BMP280;72510;45.128;20.734;2024-02-26T08:35:49;99703.09;;;16.33
82778;BMP280;72510;45.128;20.734;2024-02-26T08:45:53;99702.53;;;16.27
82778;BMP280;72510;45.128;20.734;2024-02-26T08:55:54;99704.88;;;16.57
82778;BMP280;72510;45.128;20.734;2024-02-26T09:05:56;99697.06;;;16.94
82778;BMP280;72510;45.128;20.734;2024-02-26T09:15:59;99678.19;;;17.07
82778;BMP280;72510;45.128;20.734;2024-02-26T09:26:00;99682.53;;;17.52
82778;BMP280;72510;45.128;20.734;2024-02-26T09:36:02;99693.09;;;17.71
82778;BMP280;72510;45.128;20.734;2024-02-26T09:46:11;99693.50;;;17.75
82778;BMP280;72510;45.128;20.734;2024-02-26T09:56:13;99679.28;;;18.03
82778;BMP280;72510;45.128;20.734;2024-02-26T10:06:20;99677.50;;;18.34
82778;BMP280;72510;45.128;20.734;2024-02-26T10:16:22;99674.56;;;18.76
82778;BMP280;72510;45.128;20.734;2024-02-26T10:26:24;99670.31;;;19.04
82778;BMP280;72510;45.128;20.734;2024-02-26T10:36:29;99652.84;;;19.20
82778;BMP280;72510;45.128;20.734;2024-02-26T10:46:30;99650.00;;;19.26
82778;BMP280;72510;45.128;20.734;2024-02-26T10:56:34;99646.16;;;19.67
82778;BMP280;72510;45.128;20.734;2024-02-26T11:06:36;99642.19;;;20.24
82778;BMP280;72510;45.128;20.734;2024-02-26T11:16:39;99640.66;;;20.71
82778;BMP280;72510;45.128;20.734;2024-02-26T11:26:45;99635.53;;;20.83
82778;BMP280;72510;45.128;20.734;2024-02-26T11:36:49;99609.84;;;22.23
82778;BMP280;72510;45.128;20.734;2024-02-26T11:46:54;99612.94;;;23.22
82778;BMP280;72510;45.128;20.734;2024-02-26T11:56:57;99595.47;;;23.64
82778;BMP280;72510;45.128;20.734;2024-02-26T12:07:02;99586.41;;;24.53
82778;BMP280;72510;45.128;20.734;2024-02-26T12:17:23;99582.16;;;24.40
82778;BMP280;72510;45.128;20.734;2024-02-26T12:27:27;99588.75;;;25.23
82778;BMP280;72510;45.128;20.734;2024-02-26T12:37:28;99585.75;;;25.52
82778;BMP280;72510;45.128;20.734;2024-02-26T12:47:30;99571.31;;;25.85
82778;BMP280;72510;45.128;20.734;2024-02-26T12:57:36;99574.03;;;26.08
82778;BMP280;72510;45.128;20.734;2024-02-26T13:07:42;99582.81;;;26.18
82778;BMP280;72510;45.128;20.734;2024-02-26T13:17:47;99596.00;;;25.98
82778;BMP280;72510;45.128;20.734;2024-02-26T13:27:48;99598.13;;;24.34
82778;BMP280;72510;45.128;20.734;2024-02-26T13:37:49;99605.59;;;25.76
82778;BMP280;72510;45.128;20.734;2024-02-26T13:47:50;99606.56;;;25.92
82778;BMP280;72510;45.128;20.734;2024-02-26T13:57:54;99601.69;;;26.38
82778;BMP280;72510;45.128;20.734;2024-02-26T14:07:56;99617.69;;;26.55
82778;BMP280;72510;45.128;20.734;2024-02-26T14:17:57;99623.28;;;26.45
82778;BMP280;72510;45.128;20.734;2024-02-26T14:27:58;99621.13;;;26.56
82778;BMP280;72510;45.128;20.734;2024-02-26T14:38:02;99631.13;;;25.92
82778;BMP280;72510;45.128;20.734;2024-02-26T14:48:04;99631.34;;;25.85
82778;BMP280;72510;45.128;20.734;2024-02-26T14:58:05;99634.91;;;25.75
82778;BMP280;72510;45.128;20.734;2024-02-26T15:08:06;99652.88;;;25.24
82778;BMP280;72510;45.128;20.734;2024-02-26T15:18:10;99651.56;;;24.39
82778;BMP280;72510;45.128;20.734;2024-02-26T15:28:17;99656.00;;;23.64
82778;BMP280;72510;45.128;20.734;2024-02-26T15:38:18;99658.00;;;22.69
82778;BMP280;72510;45.128;20.734;2024-02-26T15:48:19;99659.25;;;21.59
82778;BMP280;72510;45.128;20.734;2024-02-26T15:58:20;99666.91;;;20.20
82778;BMP280;72510;45.128;20.734;2024-02-26T16:08:22;99664.28;;;18.59
82778;BMP280;72510;45.128;20.734;2024-02-26T16:18:27;99672.44;;;17.45
82778;BMP280;72510;45.128;20.734;2024-02-26T16:28:29;99691.22;;;16.68
82778;BMP280;72510;45.128;20.734;2024-02-26T16:38:30;99690.28;;;16.13
82778;BMP280;72510;45.128;20.734;2024-02-26T16:48:35;99712.47;;;15.87
82778;BMP280;72510;45.128;20.734;2024-02-26T16:58:37;99712.56;;;15.49
82778;BMP280;72510;45.128;20.734;2024-02-26T17:08:38;99730.00;;;15.23
82778;BMP280;72510;45.128;20.734;2024-02-26T17:18:43;99741.84;;;14.90
82778;BMP280;72510;45.128;20.734;2024-02-26T17:28:44;99742.66;;;14.60
82778;BMP280;72510;45.128;20.734;2024-02-26T17:38:47;99756.50;;;14.40
82778;BMP280;72510;45.128;20.734;2024-02-26T17:48:51;99761.28;;;14.17
82778;BMP280;72510;45.128;20.734;2024-02-26T17:58:53;99763.34;;;14.05
82778;BMP280;72510;45.128;20.734;2024-02-26T18:08:54;99767.81;;;13.91
82778;BMP280;72510;45.128;20.734;2024-02-26T18:18:55;99771.84;;;13.73
82778;BMP280;72510;45.128;20.734;2024-02-26T18:28:57;99775.78;;;13.55
82778;BMP280;72510;45.128;20.734;2024-02-26T18:38:58;99769.75;;;13.43
82778;BMP280;72510;45.128;20.734;2024-02-26T18:48:59;99772.47;;;13.38
82778;BMP280;72510;45.128;20.734;2024-02-26T18:59:04;99790.75;;;13.28
82778;BMP280;72510;45.128;20.734;2024-02-26T19:09:08;99790.50;;;13.26
82778;BMP280;72510;45.128;20.734;2024-02-26T19:19:14;99803.19;;;13.14
82778;BMP280;72510;45.128;20.734;2024-02-26T19:29:16;99802.72;;;13.04
82778;BMP280;72510;45.128;20.734;2024-02-26T19:39:19;99813.44;;;12.99
82778;BMP280;72510;45.128;20.734;2024-02-26T19:49:25;99826.34;;;12.95
82778;BMP280;72510;45.128;20.734;2024-02-26T19:59:27;99839.69;;;12.95
82778;BMP280;72510;45.128;20.734;2024-02-26T20:09:34;99839.19;;;12.91
82778;BMP280;72510;45.128;20.734;2024-02-26T20:19:38;99857.41;;;12.98
82778;BMP280;72510;45.128;20.734;2024-02-26T20:29:41;99861.31;;;12.91
82778;BMP280;72510;45.128;20.734;2024-02-26T20:39:43;99868.13;;;12.86
82778;BMP280;72510;45.128;20.734;2024-02-26T20:49:47;99879.03;;;12.77
82778;BMP280;72510;45.128;20.734;2024-02-26T20:59:51;99889.25;;;12.73
82778;BMP280;72510;45.128;20.734;2024-02-26T21:09:52;99882.19;;;12.76
82778;BMP280;72510;45.128;20.734;2024-02-26T21:19:55;99899.22;;;12.73
82778;BMP280;72510;45.128;20.734;2024-02-26T21:29:57;99904.78;;;12.69
82778;BMP280;72510;45.128;20.734;2024-02-26T21:39:58;99915.25;;;12.73
82778;BMP280;72510;45.128;20.734;2024-02-26T21:50:00;99932.94;;;12.70
82778;BMP280;72510;45.128;20.734;2024-02-26T22:00:05;99948.25;;;12.58
82778;BMP280;72510;45.128;20.734;2024-02-26T22:10:14;99956.25;;;12.53
82778;BMP280;72510;45.128;20.734;2024-02-26T22:20:22;99956.44;;;12.38
82778;BMP280;72510;45.128;20.734;2024-02-26T22:30:24;99976.34;;;12.37
82778;BMP280;72510;45.128;20.734;2024-02-26T22:40:25;99977.28;;;12.34
82778;BMP280;72510;45.128;20.734;2024-02-26T22:50:27;99964.19;;;12.30
82778;BMP280;72510;45.128;20.734;2024-02-26T23:00:28;99953.25;;;12.28
82778;BMP280;72510;45.128;20.734;2024-02-26T23:10:40;99951.78;;;12.27
82778;BMP280;72510;45.128;20.734;2024-02-26T23:20:42;99966.81;;;12.24
82778;BMP280;72510;45.128;20.734;2024-02-26T23:30:44;99964.38;;;12.21
82778;BMP280;72510;45.128;20.734;2024-02-26T23:40:45;99979.91;;;12.17
82778;BMP280;72510;45.128;20.734;2024-02-26T23:50:46;99976.75;;;12.13
